createdAt,value
2023-03-05T00:02:34.703Z,98777.72
2023-03-05T00:05:38.385Z,98765.31
2023-03-05T00:08:42.989Z,98776.03
2023-03-05T00:11:47.491Z,98770.13
2023-03-05T00:14:52.571Z,98765.59
2023-03-05T00:17:56.125Z,98767.03
2023-03-05T00:20:59.946Z,98759.00
2023-03-05T00:24:05.625Z,98763.56
2023-03-05T00:27:09.169Z,98752.06
2023-03-05T00:30:15.723Z,98753.84
2023-03-05T00:33:20.858Z,98754.03
2023-03-05T00:36:24.744Z,98753.91
2023-03-05T00:39:28.227Z,98744.66
2023-03-05T00:42:32.264Z,98742.06
2023-03-05T00:45:37.234Z,98737.28
2023-03-05T00:48:40.926Z,98740.78
2023-03-05T00:51:44.516Z,98741.75
2023-03-05T00:54:48.200Z,98745.44
2023-03-05T00:57:51.837Z,98731.66
2023-03-05T01:00:59.126Z,98734.94
2023-03-05T01:04:02.700Z,98726.06
2023-03-05T01:07:06.787Z,98724.56
2023-03-05T01:10:13.143Z,98719.13
2023-03-05T01:13:16.997Z,98720.47
2023-03-05T01:16:22.085Z,98716.53
2023-03-05T01:19:25.843Z,98712.09
2023-03-05T01:22:30.134Z,98706.84
2023-03-05T01:25:33.593Z,98697.13
2023-03-05T01:28:38.556Z,98701.63
2023-03-05T01:31:43.721Z,98698.31
2023-03-05T01:34:47.265Z,98692.84
2023-03-05T01:37:50.817Z,98701.47
2023-03-05T01:40:54.952Z,98692.72
2023-03-05T01:43:58.854Z,98692.09
2023-03-05T01:47:04.285Z,98690.00
2023-03-05T01:50:11.572Z,98681.03
2023-03-05T01:53:15.743Z,98688.75
2023-03-05T01:56:19.648Z,98679.28
2023-03-05T01:59:26.212Z,98669.19
2023-03-05T02:02:31.795Z,98674.25
2023-03-05T02:05:38.189Z,98679.34
2023-03-05T02:08:42.356Z,98668.59
2023-03-05T02:11:46.183Z,98667.22
2023-03-05T02:14:59.244Z,98661.19
2023-03-05T02:18:04.618Z,98656.03
2023-03-05T02:21:10.273Z,98663.56
2023-03-05T02:24:15.181Z,98657.63
2023-03-05T02:27:20.995Z,98657.06
2023-03-05T02:30:32.460Z,98644.06
2023-03-05T02:33:36.293Z,98654.06
2023-03-05T02:36:41.678Z,98645.25
2023-03-05T02:39:46.176Z,98641.81
2023-03-05T02:42:50.052Z,98640.88
2023-03-05T02:45:54.260Z,98641.69
2023-03-05T02:48:57.932Z,98639.28
2023-03-05T02:52:16.807Z,98629.84
2023-03-05T02:55:20.891Z,98640.88
2023-03-05T02:58:24.967Z,98635.44
2023-03-05T03:01:29.871Z,98633.69
2023-03-05T03:04:34.496Z,98633.31
2023-03-05T03:07:39.785Z,98634.97
2023-03-05T03:10:43.560Z,98635.25
2023-03-05T03:13:47.185Z,98622.28
2023-03-05T03:16:53.170Z,98628.66
2023-03-05T03:19:56.890Z,98624.81
2023-03-05T03:23:02.064Z,98620.69
2023-03-05T03:26:05.749Z,98621.19
2023-03-05T03:29:09.174Z,98615.19
2023-03-05T03:32:12.707Z,98616.25
2023-03-05T03:35:16.531Z,98613.41
2023-03-05T03:38:21.459Z,98608.13
2023-03-05T03:41:25.099Z,98613.31
2023-03-05T03:44:28.666Z,98610.75
2023-03-05T03:47:32.394Z,98614.50
2023-03-05T03:50:35.891Z,98611.09
2023-03-05T03:53:41.071Z,98598.16
2023-03-05T03:56:44.724Z,98598.25
2023-03-05T03:59:50.539Z,98589.50
2023-03-05T04:02:54.055Z,98583.31
2023-03-05T04:05:57.969Z,98583.47
2023-03-05T04:09:03.966Z,98571.94
2023-03-05T04:12:08.631Z,98573.28
2023-03-05T04:15:12.467Z,98572.38
2023-03-05T04:18:15.951Z,98570.56
2023-03-05T04:21:19.339Z,98563.44
2023-03-05T04:24:24.320Z,98559.34
2023-03-05T04:27:27.780Z,98559.31
2023-03-05T04:30:31.464Z,98559.09
2023-03-05T04:33:35.828Z,98555.56
2023-03-05T04:36:39.634Z,98554.94
2023-03-05T04:39:44.926Z,98554.34
2023-03-05T04:42:48.822Z,98555.50
2023-03-05T04:45:52.624Z,98553.97
2023-03-05T04:48:58.500Z,98557.78
2023-03-05T04:52:01.944Z,98556.13
2023-03-05T04:55:07.938Z,98550.72
2023-03-05T04:58:11.439Z,98543.75
2023-03-05T05:01:15.985Z,98541.72
2023-03-05T05:04:19.408Z,98537.00
2023-03-05T05:07:23.201Z,98541.56
2023-03-05T05:10:28.456Z,98547.41
2023-03-05T05:13:33.054Z,98549.66
2023-03-05T05:16:37.257Z,98538.78
2023-03-05T05:19:40.914Z,98538.31
2023-03-05T05:22:44.805Z,98538.28
2023-03-05T05:25:57.499Z,98537.47
2023-03-05T05:29:01.162Z,98534.63
2023-03-05T05:32:04.766Z,98537.19
2023-03-05T05:35:09.171Z,98533.34
2023-03-05T05:38:12.740Z,98532.91
2023-03-05T05:41:19.814Z,98525.19
2023-03-05T05:44:23.548Z,98522.06
2023-03-05T05:47:27.902Z,98523.81
2023-03-05T05:50:31.414Z,98522.84
2023-03-05T05:53:35.405Z,98518.28
2023-03-05T05:56:40.457Z,98516.16
2023-03-05T05:59:44.109Z,98516.47
2023-03-05T06:02:47.827Z,98514.88
2023-03-05T06:05:52.205Z,98506.72
2023-03-05T06:08:56.506Z,98499.06
2023-03-05T06:12:01.621Z,98514.53
2023-03-05T06:15:05.921Z,98517.03
2023-03-05T06:18:09.767Z,98508.34
2023-03-05T06:21:15.657Z,98503.31
2023-03-05T06:24:19.884Z,98497.00
2023-03-05T06:27:25.016Z,98498.75
2023-03-05T06:30:28.601Z,98495.06
2023-03-05T06:33:32.549Z,98489.94
2023-03-05T06:36:36.239Z,98491.50
2023-03-05T06:39:39.829Z,98498.28
2023-03-05T06:42:45.764Z,98485.44
2023-03-05T06:45:49.537Z,98485.06
2023-03-05T06:48:55.935Z,98479.00
2023-03-05T06:51:59.440Z,98483.31
2023-03-05T06:55:03.025Z,98486.09
2023-03-05T06:58:09.241Z,98481.84
2023-03-05T07:01:13.217Z,98479.84
2023-03-05T07:04:17.122Z,98480.78
2023-03-05T07:07:20.520Z,98485.91
2023-03-05T07:10:23.928Z,98483.06
2023-03-05T07:13:29.031Z,98484.16
2023-03-05T07:16:34.567Z,98472.38
2023-03-05T07:19:39.778Z,98470.31
2023-03-05T07:22:43.439Z,98465.22
2023-03-05T07:25:46.863Z,98458.41
2023-03-05T07:28:51.791Z,98447.63
2023-03-05T07:31:55.736Z,98452.63
2023-03-05T07:34:59.520Z,98446.16
2023-03-05T07:38:03.444Z,98445.19
2023-03-05T07:41:08.953Z,98443.03
2023-03-05T07:44:14.179Z,98436.66
2023-03-05T07:47:18.102Z,98439.47
2023-03-05T07:50:21.762Z,98440.19
2023-03-05T07:53:25.442Z,98431.91
2023-03-05T07:56:32.188Z,98434.94
2023-03-05T07:59:37.215Z,98432.47
2023-03-05T08:02:40.768Z,98428.09
2023-03-05T08:05:44.449Z,98430.03
2023-03-05T08:08:48.030Z,98433.63
2023-03-05T08:11:52.000Z,98430.72
2023-03-05T08:14:57.022Z,98428.81
2023-03-05T08:18:01.134Z,98431.31
2023-03-05T08:21:05.136Z,98429.41
2023-03-05T08:24:10.039Z,98425.34
2023-03-05T08:27:13.721Z,98419.94
2023-03-05T08:30:22.281Z,98421.31
2023-03-05T08:33:26.019Z,98418.56
2023-03-05T08:36:30.160Z,98422.16
2023-03-05T08:39:34.410Z,98421.75
2023-03-05T08:42:37.994Z,98407.75
2023-03-05T08:45:42.863Z,98409.22
2023-03-05T08:48:46.655Z,98412.53
2023-03-05T08:51:50.201Z,98414.63
2023-03-05T08:54:54.110Z,98411.94
2023-03-05T08:57:57.537Z,98412.56
2023-03-05T09:01:02.763Z,98406.16
2023-03-05T09:04:06.340Z,98406.56
2023-03-05T09:07:09.750Z,98408.16
2023-03-05T09:10:15.085Z,98402.91
2023-03-05T09:13:18.464Z,98408.00
2023-03-05T09:16:23.316Z,98409.28
2023-03-05T09:19:27.617Z,98410.75
2023-03-05T09:22:31.677Z,98414.13
2023-03-05T09:25:35.367Z,98404.59
2023-03-05T09:28:39.094Z,98406.63
2023-03-05T09:31:44.649Z,98409.31
2023-03-05T09:34:48.451Z,98404.84
2023-03-05T09:37:52.780Z,98402.44
2023-03-05T09:41:05.658Z,98399.28
2023-03-05T09:44:24.733Z,98402.75
2023-03-05T09:47:46.686Z,98396.72
2023-03-05T09:50:54.505Z,98393.59
2023-03-05T09:54:04.785Z,98399.22
2023-03-05T09:57:17.513Z,98396.91
2023-03-05T10:00:31.673Z,98399.53
2023-03-05T10:03:50.171Z,98400.38
2023-03-05T10:06:59.799Z,98390.59
2023-03-05T10:10:11.011Z,98385.34
2023-03-05T10:13:24.069Z,98376.78
2023-03-05T10:16:51.498Z,98371.16
2023-03-05T10:20:15.684Z,98371.09
2023-03-05T10:23:31.152Z,98365.69
2023-03-05T10:26:50.594Z,98371.41
2023-03-05T10:30:05.542Z,98375.50
2023-03-05T10:33:17.013Z,98368.16
2023-03-05T10:36:34.174Z,98359.00
2023-03-05T10:40:05.790Z,98365.47
2023-03-05T10:43:20.472Z,98362.72
2023-03-05T10:46:32.723Z,98367.94
2023-03-05T10:49:43.161Z,98364.59
2023-03-05T10:52:53.508Z,98356.59
2023-03-05T10:55:57.891Z,98358.63
2023-03-05T10:59:01.274Z,98344.94
2023-03-05T11:02:08.932Z,98361.53
2023-03-05T11:05:40.434Z,98350.69
2023-03-05T11:08:45.236Z,98354.22
2023-03-05T11:12:05.960Z,98346.31
2023-03-05T11:15:27.837Z,98344.34
2023-03-05T11:18:34.801Z,98341.56
2023-03-05T11:21:38.458Z,98342.00
2023-03-05T11:24:46.810Z,98362.47
2023-03-05T11:27:54.623Z,98345.75
2023-03-05T11:31:01.914Z,98349.88
2023-03-05T11:34:09.030Z,98341.31
2023-03-05T11:37:26.844Z,98331.69
2023-03-05T11:40:36.935Z,98337.56
2023-03-05T11:43:43.117Z,98326.44
2023-03-05T11:46:50.086Z,98325.53
2023-03-05T11:50:02.582Z,98319.09
2023-03-05T11:53:09.771Z,98315.19
2023-03-05T11:56:22.844Z,98315.06
2023-03-05T11:59:32.587Z,98308.47
2023-03-05T12:02:36.378Z,98299.53
2023-03-05T12:05:43.335Z,98307.50
2023-03-05T12:08:50.998Z,98305.53
2023-03-05T12:12:03.522Z,98305.97
2023-03-05T12:15:26.947Z,98290.19
2023-03-05T12:18:47.422Z,98287.38
2023-03-05T12:21:52.699Z,98296.13
2023-03-05T12:25:26.379Z,98289.53
2023-03-05T12:28:59.480Z,98274.63
2023-03-05T12:32:03.634Z,98277.19
2023-03-05T12:35:23.785Z,98274.50
2023-03-05T12:38:35.070Z,98284.50
2023-03-05T12:41:39.701Z,98283.25
2023-03-05T12:44:45.152Z,98279.53
2023-03-05T12:48:12.278Z,98279.13
2023-03-05T12:51:34.952Z,98278.03
2023-03-05T12:54:39.915Z,98281.50
2023-03-05T12:57:45.396Z,98275.03
2023-03-05T13:00:53.736Z,98278.97
2023-03-05T13:04:01.581Z,98272.75
2023-03-05T13:07:08.461Z,98272.03
2023-03-05T13:10:23.766Z,98265.84
2023-03-05T13:13:30.028Z,98270.88
2023-03-05T13:16:40.171Z,98264.41
2023-03-05T13:19:43.798Z,98267.63
2023-03-05T13:22:48.978Z,98267.72
2023-03-05T13:26:02.463Z,98268.34
2023-03-05T13:29:14.015Z,98264.94
2023-03-05T13:32:26.768Z,98268.78
2023-03-05T13:35:30.771Z,98277.75
2023-03-05T13:38:40.631Z,98281.47
2023-03-05T13:41:44.238Z,98271.75
2023-03-05T13:44:55.885Z,98269.00
2023-03-05T13:48:01.316Z,98269.84
2023-03-05T13:51:07.100Z,98275.38
2023-03-05T13:54:16.801Z,98266.84
2023-03-05T13:57:37.034Z,98264.38
2023-03-05T14:00:41.388Z,98264.44
2023-03-05T14:03:47.060Z,98270.94
2023-03-05T14:06:54.858Z,98263.09
2023-03-05T14:10:03.231Z,98261.41
2023-03-05T14:13:14.650Z,98257.81
2023-03-05T14:16:26.988Z,98254.06
2023-03-05T14:19:39.477Z,98253.88
2023-03-05T14:22:45.317Z,98252.88
2023-03-05T14:25:50.683Z,98249.47
2023-03-05T14:28:56.486Z,98251.31
2023-03-05T14:32:04.224Z,98240.44
2023-03-05T14:35:08.681Z,98250.09
2023-03-05T14:38:21.393Z,98248.88
2023-03-05T14:41:40.296Z,98248.19
2023-03-05T14:44:44.405Z,98250.09
2023-03-05T14:47:48.502Z,98250.31
2023-03-05T14:50:57.178Z,98250.13
2023-03-05T14:54:00.904Z,98250.13
2023-03-05T14:57:07.508Z,98243.34
2023-03-05T15:00:18.201Z,98239.88
2023-03-05T15:03:23.760Z,98231.28
2023-03-05T15:06:33.197Z,98232.97
2023-03-05T15:09:38.368Z,98235.22
2023-03-05T15:12:44.552Z,98239.09
2023-03-05T15:15:49.218Z,98232.72
2023-03-05T15:18:52.700Z,98232.09
2023-03-05T15:21:56.432Z,98246.09
2023-03-05T15:24:59.932Z,98228.88
2023-03-05T15:28:04.992Z,98246.47
2023-03-05T15:31:09.726Z,98245.69
2023-03-05T15:34:13.389Z,98252.81
2023-03-05T15:37:17.080Z,98246.06
2023-03-05T15:40:22.408Z,98239.72
2023-03-05T15:43:27.462Z,98232.56
2023-03-05T15:46:31.214Z,98232.44
2023-03-05T15:49:34.909Z,98228.94
2023-03-05T15:52:38.410Z,98220.34
2023-03-05T15:55:43.620Z,98227.13
2023-03-05T15:58:50.478Z,98219.00
2023-03-05T16:01:54.007Z,98228.50
2023-03-05T16:04:57.604Z,98238.47
2023-03-05T16:08:01.862Z,98239.47
2023-03-05T16:11:06.596Z,98240.25
2023-03-05T16:14:12.008Z,98237.63
2023-03-05T16:17:16.702Z,98239.84
2023-03-05T16:20:21.831Z,98245.25
2023-03-05T16:23:25.445Z,98236.56
2023-03-05T16:26:29.258Z,98233.34
2023-03-05T16:29:35.040Z,98238.50
2023-03-05T16:32:39.101Z,98242.66
2023-03-05T16:35:42.578Z,98241.69
2023-03-05T16:38:46.133Z,98233.97
2023-03-05T16:41:50.975Z,98248.00
2023-03-05T16:44:56.957Z,98248.66
2023-03-05T16:48:00.753Z,98233.00
2023-03-05T16:51:04.856Z,98247.81
2023-03-05T16:54:10.227Z,98243.97
2023-03-05T16:57:14.009Z,98240.28
2023-03-05T17:00:21.908Z,98236.34
2023-03-05T17:03:27.997Z,98243.81
2023-03-05T17:06:33.875Z,98249.22
2023-03-05T17:09:38.084Z,98244.66
2023-03-05T17:12:43.739Z,98243.91
2023-03-05T17:15:48.693Z,98246.31
2023-03-05T17:18:53.683Z,98253.66
2023-03-05T17:21:57.307Z,98249.22
2023-03-05T17:25:00.958Z,98246.69
2023-03-05T17:28:05.185Z,98236.94
2023-03-05T17:31:10.818Z,98250.56
2023-03-05T17:34:14.360Z,98250.97
2023-03-05T17:37:19.480Z,98245.50
2023-03-05T17:40:24.136Z,98252.41
2023-03-05T17:43:28.372Z,98248.66
2023-03-05T17:46:33.515Z,98255.78
2023-03-05T17:49:36.946Z,98249.38
2023-03-05T17:52:41.473Z,98251.28
2023-03-05T17:55:45.558Z,98250.50
2023-03-05T17:58:49.661Z,98249.03
2023-03-05T18:01:54.822Z,98246.63
2023-03-05T18:04:58.366Z,98238.50
2023-03-05T18:08:03.585Z,98236.03
2023-03-05T18:11:07.166Z,98235.34
2023-03-05T18:14:10.598Z,98234.00
2023-03-05T18:17:16.255Z,98235.41
2023-03-05T18:20:28.569Z,98236.44
2023-03-05T18:23:32.060Z,98245.41
2023-03-05T18:26:35.486Z,98249.53
2023-03-05T18:29:38.919Z,98256.97
2023-03-05T18:32:45.064Z,98250.06
2023-03-05T18:35:52.538Z,98251.03
2023-03-05T18:38:56.133Z,98250.19
2023-03-05T18:41:59.952Z,98241.59
2023-03-05T18:45:04.095Z,98242.50
2023-03-05T18:48:09.231Z,98224.31
2023-03-05T18:51:19.803Z,98234.94
2023-03-05T18:54:23.568Z,98234.31
2023-03-05T18:57:27.600Z,98226.00
2023-03-05T19:00:32.733Z,98218.84
2023-03-05T19:03:38.019Z,98208.25
2023-03-05T19:06:41.609Z,98215.59
2023-03-05T19:09:52.700Z,98200.63
2023-03-05T19:13:05.973Z,98211.00
2023-03-05T19:16:11.718Z,98212.47
2023-03-05T19:19:20.554Z,98209.50
2023-03-05T19:22:26.671Z,98199.38
2023-03-05T19:25:30.451Z,98197.50
2023-03-05T19:28:34.100Z,98202.31
2023-03-05T19:31:38.257Z,98196.47
2023-03-05T19:34:45.196Z,98193.06
2023-03-05T19:37:49.232Z,98197.16
2023-03-05T19:40:52.696Z,98199.00
2023-03-05T19:43:56.457Z,98201.41
2023-03-05T19:47:00.192Z,98198.34
2023-03-05T19:50:05.972Z,98195.50
2023-03-05T19:53:09.651Z,98187.50
2023-03-05T19:56:15.814Z,98195.50
2023-03-05T19:59:21.374Z,98189.41
2023-03-05T20:02:24.961Z,98188.44
2023-03-05T20:05:31.267Z,98193.69
2023-03-05T20:08:35.177Z,98190.41
2023-03-05T20:11:39.645Z,98193.69
2023-03-05T20:14:43.053Z,98195.50
2023-03-05T20:17:48.358Z,98188.44
2023-03-05T20:21:01.935Z,98183.16
2023-03-05T20:24:09.817Z,98185.13
2023-03-05T20:27:13.506Z,98187.72
2023-03-05T20:30:18.054Z,98184.13
2023-03-05T20:33:21.573Z,98184.97
2023-03-05T20:36:26.834Z,98178.06
2023-03-05T20:39:31.050Z,98177.94
2023-03-05T20:42:34.718Z,98176.28
2023-03-05T20:45:38.663Z,98172.00
2023-03-05T20:48:42.241Z,98171.94
2023-03-05T20:51:51.207Z,98170.03
2023-03-05T20:54:54.907Z,98165.69
2023-03-05T20:57:58.611Z,98167.97
2023-03-05T21:01:02.140Z,98170.91
2023-03-05T21:04:05.975Z,98165.66
2023-03-05T21:07:10.890Z,98165.94
2023-03-05T21:10:16.527Z,98174.34
2023-03-05T21:13:20.324Z,98172.94
2023-03-05T21:16:26.593Z,98177.50
2023-03-05T21:19:33.634Z,98185.66
2023-03-05T21:22:38.734Z,98184.41
2023-03-05T21:25:42.269Z,98190.06
2023-03-05T21:28:46.138Z,98185.97
2023-03-05T21:31:49.824Z,98183.72
2023-03-05T21:34:54.352Z,98182.44
2023-03-05T21:38:00.233Z,98179.97
2023-03-05T21:41:04.429Z,98181.06
2023-03-05T21:44:11.684Z,98181.22
2023-03-05T21:47:15.510Z,98177.44
2023-03-05T21:50:20.208Z,98174.84
2023-03-05T21:53:25.837Z,98171.88
2023-03-05T21:56:31.264Z,98180.03
2023-03-05T21:59:35.281Z,98177.59
2023-03-05T22:02:39.204Z,98175.38
2023-03-05T22:05:43.760Z,98170.16
2023-03-05T22:08:49.201Z,98174.63
2023-03-05T22:11:52.695Z,98167.00
2023-03-05T22:14:56.074Z,98163.78
2023-03-05T22:17:59.540Z,98166.50
2023-03-05T22:21:04.215Z,98157.56
2023-03-05T22:24:10.351Z,98157.06
2023-03-05T22:27:13.774Z,98160.59
2023-03-05T22:30:28.202Z,98155.50
2023-03-05T22:33:32.771Z,98151.66
2023-03-05T22:36:36.440Z,98146.44
2023-03-05T22:39:41.297Z,98150.84
2023-03-05T22:42:45.666Z,98146.50
2023-03-05T22:45:49.633Z,98143.94
2023-03-05T22:48:53.960Z,98142.28
2023-03-05T22:51:57.496Z,98137.25
2023-03-05T22:55:04.655Z,98137.69
2023-03-05T22:58:08.087Z,98139.94
2023-03-05T23:01:15.879Z,98137.84
2023-03-05T23:04:29.646Z,98136.44
2023-03-05T23:07:35.859Z,98138.94
2023-03-05T23:10:40.794Z,98132.25
2023-03-05T23:13:44.350Z,98146.00
2023-03-05T23:16:48.118Z,98141.34
2023-03-05T23:19:51.737Z,98146.66
2023-03-05T23:23:01.767Z,98133.81
2023-03-05T23:26:07.197Z,98135.25
2023-03-05T23:29:12.206Z,98128.19
2023-03-05T23:32:15.696Z,98127.31
2023-03-05T23:35:21.946Z,98130.72
2023-03-05T23:38:26.960Z,98135.38
2023-03-05T23:41:32.057Z,98133.31
2023-03-05T23:44:37.806Z,98130.84
2023-03-05T23:47:42.649Z,98122.13
2023-03-05T23:50:48.930Z,98124.16
2023-03-05T23:53:52.727Z,98123.25
2023-03-05T23:56:57.630Z,98120.50
